sensor_id;sensor_type;location;lat;lon;timestamp;temperature;humidity
5806;DHT22;2929;50.810;8.342;2022-08-19T00:01:18;17.20;99.90
5806;DHT22;2929;50.810;8.342;2022-08-19T00:03:45;17.10;99.90
5806;DHT22;2929;50.810;8.342;2022-08-19T00:06:14;17.20;99.90
5806;DHT22;2929;50.810;8.342;2022-08-19T00:08:41;17.10;99.90
5806;DHT22;2929;50.810;8.342;2022-08-19T00:11:09;17.20;99.90
5806;DHT22;2929;50.810;8.342;2022-08-19T00:13:36;17.20;99.90
5806;DHT22;2929;50.810;8.342;2022-08-19T00:16:04;17.20;99.90
5806;DHT22;2929;50.810;8.342;2022-08-19T00:18:32;17.30;99.90
5806;DHT22;2929;50.810;8.342;2022-08-19T00:20:59;17.30;99.90
5806;DHT22;2929;50.810;8.342;2022-08-19T00:23:28;17.10;99.90
5806;DHT22;2929;50.810;8.342;2022-08-19T00:25:55;17.20;99.90
5806;DHT22;2929;50.810;8.342;2022-08-19T00:28:22;17.20;99.90
5806;DHT22;2929;50.810;8.342;2022-08-19T00:30:49;17.20;99.90
5806;DHT22;2929;50.810;8.342;2022-08-19T00:33:18;17.30;99.90
5806;DHT22;2929;50.810;8.342;2022-08-19T00:35:45;17.40;99.90
5806;DHT22;2929;50.810;8.342;2022-08-19T00:38:13;17.40;99.90
5806;DHT22;2929;50.810;8.342;2022-08-19T00:40:43;17.40;99.90
5806;DHT22;2929;50.810;8.342;2022-08-19T00:43:12;17.30;99.90
5806;DHT22;2929;50.810;8.342;2022-08-19T00:45:40;17.30;99.90
5806;DHT22;2929;50.810;8.342;2022-08-19T00:48:09;17.20;99.90
5806;DHT22;2929;50.810;8.342;2022-08-19T00:50:39;17.10;99.90
5806;DHT22;2929;50.810;8.342;2022-08-19T00:53:09;17.10;99.90
5806;DHT22;2929;50.810;8.342;2022-08-19T00:55:37;17.10;99.90
5806;DHT22;2929;50.810;8.342;2022-08-19T00:58:10;17.20;99.90
5806;DHT22;2929;50.810;8.342;2022-08-19T01:00:38;17.20;99.90
5806;DHT22;2929;50.810;8.342;2022-08-19T01:03:09;17.20;99.90
5806;DHT22;2929;50.810;8.342;2022-08-19T01:05:37;17.20;99.90
5806;DHT22;2929;50.810;8.342;2022-08-19T01:08:06;17.20;99.90
5806;DHT22;2929;50.810;8.342;2022-08-19T01:10:37;17.30;99.90
5806;DHT22;2929;50.810;8.342;2022-08-19T01:13:07;17.30;99.90
5806;DHT22;2929;50.810;8.342;2022-08-19T01:15:40;17.30;99.90
5806;DHT22;2929;50.810;8.342;2022-08-19T01:18:11;17.30;99.90
5806;DHT22;2929;50.810;8.342;2022-08-19T01:20:39;17.20;99.90
5806;DHT22;2929;50.810;8.342;2022-08-19T01:23:08;17.10;99.90
5806;DHT22;2929;50.810;8.342;2022-08-19T01:25:40;17.10;99.90
5806;DHT22;2929;50.810;8.342;2022-08-19T01:28:14;17.10;99.90
5806;DHT22;2929;50.810;8.342;2022-08-19T01:30:43;17.10;99.90
5806;DHT22;2929;50.810;8.342;2022-08-19T01:33:11;17.10;99.90
5806;DHT22;2929;50.810;8.342;2022-08-19T01:35:38;17.00;99.90
5806;DHT22;2929;50.810;8.342;2022-08-19T01:38:10;17.00;99.90
5806;DHT22;2929;50.810;8.342;2022-08-19T01:40:39;16.80;99.90
5806;DHT22;2929;50.810;8.342;2022-08-19T01:43:07;16.80;99.90
5806;DHT22;2929;50.810;8.342;2022-08-19T01:45:35;16.80;99.90
5806;DHT22;2929;50.810;8.342;2022-08-19T01:48:06;16.80;99.90
5806;DHT22;2929;50.810;8.342;2022-08-19T01:50:34;16.80;99.90
5806;DHT22;2929;50.810;8.342;2022-08-19T01:53:05;16.60;99.90
5806;DHT22;2929;50.810;8.342;2022-08-19T01:55:35;16.60;99.90
5806;DHT22;2929;50.810;8.342;2022-08-19T01:58:05;16.50;99.90
5806;DHT22;2929;50.810;8.342;2022-08-19T02:00:32;16.50;99.90
5806;DHT22;2929;50.810;8.342;2022-08-19T02:02:59;16.50;99.90
5806;DHT22;2929;50.810;8.342;2022-08-19T02:05:27;16.60;99.90
5806;DHT22;2929;50.810;8.342;2022-08-19T02:07:55;16.70;99.90
5806;DHT22;2929;50.810;8.342;2022-08-19T02:10:22;16.60;99.90
5806;DHT22;2929;50.810;8.342;2022-08-19T02:12:51;16.40;99.90
5806;DHT22;2929;50.810;8.342;2022-08-19T02:15:19;16.30;99.90
5806;DHT22;2929;50.810;8.342;2022-08-19T02:17:46;16.30;99.90
5806;DHT22;2929;50.810;8.342;2022-08-19T02:20:14;16.30;99.90
5806;DHT22;2929;50.810;8.342;2022-08-19T02:22:42;16.30;99.90
5806;DHT22;2929;50.810;8.342;2022-08-19T02:25:10;16.20;99.90
5806;DHT22;2929;50.810;8.342;2022-08-19T02:27:38;16.10;99.90
5806;DHT22;2929;50.810;8.342;2022-08-19T02:30:11;16.10;99.90
5806;DHT22;2929;50.810;8.342;2022-08-19T02:32:38;16.20;99.90
5806;DHT22;2929;50.810;8.342;2022-08-19T02:35:06;16.10;99.90
5806;DHT22;2929;50.810;8.342;2022-08-19T02:37:34;16.10;99.90
5806;DHT22;2929;50.810;8.342;2022-08-19T02:40:19;16.00;99.90
5806;DHT22;2929;50.810;8.342;2022-08-19T02:42:46;15.90;99.90
5806;DHT22;2929;50.810;8.342;2022-08-19T02:45:15;15.90;99.90
5806;DHT22;2929;50.810;8.342;2022-08-19T02:47:42;15.80;99.90
5806;DHT22;2929;50.810;8.342;2022-08-19T02:50:10;15.80;99.90
5806;DHT22;2929;50.810;8.342;2022-08-19T02:52:37;15.80;99.90
5806;DHT22;2929;50.810;8.342;2022-08-19T02:55:05;15.80;99.90
5806;DHT22;2929;50.810;8.342;2022-08-19T02:57:32;15.80;99.90
5806;DHT22;2929;50.810;8.342;2022-08-19T03:00:00;15.70;99.90
5806;DHT22;2929;50.810;8.342;2022-08-19T03:02:29;15.70;99.90
5806;DHT22;2929;50.810;8.342;2022-08-19T03:04:56;15.50;99.90
5806;DHT22;2929;50.810;8.342;2022-08-19T03:07:23;15.30;99.90
5806;DHT22;2929;50.810;8.342;2022-08-19T03:09:50;15.20;99.90
5806;DHT22;2929;50.810;8.342;2022-08-19T03:12:17;15.30;99.90
5806;DHT22;2929;50.810;8.342;2022-08-19T03:14:44;15.20;99.90
5806;DHT22;2929;50.810;8.342;2022-08-19T03:17:12;15.10;99.90
5806;DHT22;2929;50.810;8.342;2022-08-19T03:19:40;15.00;99.90
5806;DHT22;2929;50.810;8.342;2022-08-19T03:22:08;15.00;99.90
5806;DHT22;2929;50.810;8.342;2022-08-19T03:24:36;14.90;99.90
5806;DHT22;2929;50.810;8.342;2022-08-19T03:27:03;14.90;99.90
5806;DHT22;2929;50.810;8.342;2022-08-19T03:29:31;15.00;99.90
5806;DHT22;2929;50.810;8.342;2022-08-19T03:32:00;15.00;99.90
5806;DHT22;2929;50.810;8.342;2022-08-19T03:34:29;15.10;99.90
5806;DHT22;2929;50.810;8.342;2022-08-19T03:37:02;15.00;99.90
5806;DHT22;2929;50.810;8.342;2022-08-19T03:39:30;15.00;99.90
5806;DHT22;2929;50.810;8.342;2022-08-19T03:41:57;14.90;99.90
5806;DHT22;2929;50.810;8.342;2022-08-19T03:44:25;14.80;99.90
5806;DHT22;2929;50.810;8.342;2022-08-19T03:46:54;14.70;99.90
5806;DHT22;2929;50.810;8.342;2022-08-19T03:49:24;14.80;99.90
5806;DHT22;2929;50.810;8.342;2022-08-19T03:51:51;14.80;99.90
5806;DHT22;2929;50.810;8.342;2022-08-19T03:54:21;14.70;99.90
5806;DHT22;2929;50.810;8.342;2022-08-19T03:56:50;14.70;99.90
5806;DHT22;2929;50.810;8.342;2022-08-19T03:59:21;14.80;99.90
5806;DHT22;2929;50.810;8.342;2022-08-19T04:01:51;14.80;99.90
5806;DHT22;2929;50.810;8.342;2022-08-19T04:04:18;14.70;99.90
5806;DHT22;2929;50.810;8.342;2022-08-19T04:06:45;14.50;99.90
5806;DHT22;2929;50.810;8.342;2022-08-19T04:09:13;14.50;99.90
5806;DHT22;2929;50.810;8.342;2022-08-19T04:11:43;14.60;99.90
5806;DHT22;2929;50.810;8.342;2022-08-19T04:14:12;14.60;99.90
5806;DHT22;2929;50.810;8.342;2022-08-19T04:16:39;14.60;99.90
5806;DHT22;2929;50.810;8.342;2022-08-19T04:19:06;14.60;99.90
5806;DHT22;2929;50.810;8.342;2022-08-19T04:21:34;14.60;99.90
5806;DHT22;2929;50.810;8.342;2022-08-19T04:24:02;14.50;99.90
5806;DHT22;2929;50.810;8.342;2022-08-19T04:26:31;14.50;99.90
5806;DHT22;2929;50.810;8.342;2022-08-19T04:29:00;14.50;99.90
5806;DHT22;2929;50.810;8.342;2022-08-19T04:31:30;14.50;99.90
5806;DHT22;2929;50.810;8.342;2022-08-19T04:33:59;14.40;99.90
5806;DHT22;2929;50.810;8.342;2022-08-19T04:36:30;14.50;99.90
5806;DHT22;2929;50.810;8.342;2022-08-19T04:38:58;14.50;99.90
5806;DHT22;2929;50.810;8.342;2022-08-19T04:41:26;14.40;99.90
5806;DHT22;2929;50.810;8.342;2022-08-19T04:44:21;14.50;99.90
5806;DHT22;2929;50.810;8.342;2022-08-19T04:46:49;14.60;99.90
5806;DHT22;2929;50.810;8.342;2022-08-19T04:49:18;14.50;99.90
5806;DHT22;2929;50.810;8.342;2022-08-19T04:51:47;14.60;99.90
5806;DHT22;2929;50.810;8.342;2022-08-19T04:54:16;14.60;99.90
5806;DHT22;2929;50.810;8.342;2022-08-19T04:56:43;14.50;99.90
5806;DHT22;2929;50.810;8.342;2022-08-19T04:59:10;14.40;99.90
5806;DHT22;2929;50.810;8.342;2022-08-19T05:01:38;14.30;99.90
5806;DHT22;2929;50.810;8.342;2022-08-19T05:04:06;14.40;99.90
5806;DHT22;2929;50.810;8.342;2022-08-19T05:06:35;14.50;99.90
5806;DHT22;2929;50.810;8.342;2022-08-19T05:09:03;14.60;99.90
5806;DHT22;2929;50.810;8.342;2022-08-19T05:11:33;14.70;99.90
5806;DHT22;2929;50.810;8.342;2022-08-19T05:14:01;14.70;99.90
5806;DHT22;2929;50.810;8.342;2022-08-19T05:16:28;14.70;99.90
5806;DHT22;2929;50.810;8.342;2022-08-19T05:18:56;14.70;99.90
5806;DHT22;2929;50.810;8.342;2022-08-19T05:21:42;14.70;99.90
5806;DHT22;2929;50.810;8.342;2022-08-19T05:24:27;14.90;99.90
5806;DHT22;2929;50.810;8.342;2022-08-19T05:26:55;14.90;99.90
5806;DHT22;2929;50.810;8.342;2022-08-19T05:29:25;15.00;99.90
5806;DHT22;2929;50.810;8.342;2022-08-19T05:31:54;15.10;99.90
5806;DHT22;2929;50.810;8.342;2022-08-19T05:34:24;15.20;99.90
5806;DHT22;2929;50.810;8.342;2022-08-19T05:36:54;15.20;99.90
5806;DHT22;2929;50.810;8.342;2022-08-19T05:39:24;15.30;99.90
5806;DHT22;2929;50.810;8.342;2022-08-19T05:41:54;15.30;99.90
5806;DHT22;2929;50.810;8.342;2022-08-19T05:44:23;15.30;99.90
5806;DHT22;2929;50.810;8.342;2022-08-19T05:46:51;15.40;99.90
5806;DHT22;2929;50.810;8.342;2022-08-19T05:49:21;15.40;99.90
5806;DHT22;2929;50.810;8.342;2022-08-19T05:51:49;15.40;99.90
5806;DHT22;2929;50.810;8.342;2022-08-19T05:54:17;15.40;99.90
5806;DHT22;2929;50.810;8.342;2022-08-19T05:56:45;15.30;99.90
5806;DHT22;2929;50.810;8.342;2022-08-19T05:59:14;15.40;99.90
5806;DHT22;2929;50.810;8.342;2022-08-19T06:01:46;15.50;99.90
5806;DHT22;2929;50.810;8.342;2022-08-19T06:04:17;15.60;99.90
5806;DHT22;2929;50.810;8.342;2022-08-19T06:06:45;15.70;99.90
5806;DHT22;2929;50.810;8.342;2022-08-19T06:09:14;15.80;99.90
5806;DHT22;2929;50.810;8.342;2022-08-19T06:11:43;15.80;99.90
5806;DHT22;2929;50.810;8.342;2022-08-19T06:14:12;15.90;99.90
5806;DHT22;2929;50.810;8.342;2022-08-19T06:16:41;16.10;99.90
5806;DHT22;2929;50.810;8.342;2022-08-19T06:19:11;16.10;99.90
5806;DHT22;2929;50.810;8.342;2022-08-19T06:21:41;16.10;99.90
5806;DHT22;2929;50.810;8.342;2022-08-19T06:24:11;16.40;99.90
5806;DHT22;2929;50.810;8.342;2022-08-19T06:26:42;16.40;99.90
5806;DHT22;2929;50.810;8.342;2022-08-19T06:29:11;16.50;99.90
5806;DHT22;2929;50.810;8.342;2022-08-19T06:31:42;16.60;99.90
5806;DHT22;2929;50.810;8.342;2022-08-19T06:34:09;16.60;99.90
5806;DHT22;2929;50.810;8.342;2022-08-19T06:36:38;16.60;99.90
5806;DHT22;2929;50.810;8.342;2022-08-19T06:39:09;16.70;99.90
5806;DHT22;2929;50.810;8.342;2022-08-19T06:41:38;16.80;99.90
5806;DHT22;2929;50.810;8.342;2022-08-19T06:44:10;17.00;99.90
5806;DHT22;2929;50.810;8.342;2022-08-19T06:46:39;17.10;99.90
5806;DHT22;2929;50.810;8.342;2022-08-19T06:49:07;17.30;99.90
5806;DHT22;2929;50.810;8.342;2022-08-19T06:51:36;17.40;99.90
5806;DHT22;2929;50.810;8.342;2022-08-19T06:54:03;17.50;99.90
5806;DHT22;2929;50.810;8.342;2022-08-19T06:56:31;17.50;99.90
5806;DHT22;2929;50.810;8.342;2022-08-19T06:58:59;17.70;99.90
5806;DHT22;2929;50.810;8.342;2022-08-19T07:01:28;17.70;99.90
5806;DHT22;2929;50.810;8.342;2022-08-19T07:03:55;17.80;99.90
5806;DHT22;2929;50.810;8.342;2022-08-19T07:06:22;17.80;99.90
5806;DHT22;2929;50.810;8.342;2022-08-19T07:08:49;18.00;99.90
5806;DHT22;2929;50.810;8.342;2022-08-19T07:11:17;18.20;99.90
5806;DHT22;2929;50.810;8.342;2022-08-19T07:13:47;18.30;99.90
5806;DHT22;2929;50.810;8.342;2022-08-19T07:16:16;18.50;99.90
5806;DHT22;2929;50.810;8.342;2022-08-19T07:18:45;18.70;99.90
5806;DHT22;2929;50.810;8.342;2022-08-19T07:21:14;18.80;99.90
5806;DHT22;2929;50.810;8.342;2022-08-19T07:23:42;19.00;99.90
5806;DHT22;2929;50.810;8.342;2022-08-19T07:26:12;19.10;99.90
5806;DHT22;2929;50.810;8.342;2022-08-19T07:28:39;19.20;99.90
5806;DHT22;2929;50.810;8.342;2022-08-19T07:31:06;19.20;99.90
5806;DHT22;2929;50.810;8.342;2022-08-19T07:33:34;19.20;99.90
5806;DHT22;2929;50.810;8.342;2022-08-19T07:36:05;19.20;99.90
5806;DHT22;2929;50.810;8.342;2022-08-19T07:38:33;19.30;99.90
5806;DHT22;2929;50.810;8.342;2022-08-19T07:41:00;19.20;99.90
5806;DHT22;2929;50.810;8.342;2022-08-19T07:43:28;19.30;99.90
5806;DHT22;2929;50.810;8.342;2022-08-19T07:45:55;19.40;99.90
5806;DHT22;2929;50.810;8.342;2022-08-19T07:48:23;19.40;99.90
5806;DHT22;2929;50.810;8.342;2022-08-19T07:50:51;19.50;99.90
5806;DHT22;2929;50.810;8.342;2022-08-19T07:53:21;19.50;99.90
5806;DHT22;2929;50.810;8.342;2022-08-19T07:55:48;19.50;99.90
5806;DHT22;2929;50.810;8.342;2022-08-19T07:58:19;19.60;99.90
5806;DHT22;2929;50.810;8.342;2022-08-19T08:00:49;19.60;99.90
5806;DHT22;2929;50.810;8.342;2022-08-19T08:03:20;19.70;99.90
5806;DHT22;2929;50.810;8.342;2022-08-19T08:06:07;19.70;99.90
5806;DHT22;2929;50.810;8.342;2022-08-19T08:08:54;19.70;99.90
5806;DHT22;2929;50.810;8.342;2022-08-19T08:11:46;19.80;99.90
5806;DHT22;2929;50.810;8.342;2022-08-19T08:14:15;19.80;99.90
5806;DHT22;2929;50.810;8.342;2022-08-19T08:16:43;19.80;99.90
5806;DHT22;2929;50.810;8.342;2022-08-19T08:19:11;19.80;99.90
5806;DHT22;2929;50.810;8.342;2022-08-19T08:21:41;19.80;99.90
5806;DHT22;2929;50.810;8.342;2022-08-19T08:24:10;19.90;99.90
5806;DHT22;2929;50.810;8.342;2022-08-19T08:26:38;19.90;99.90
5806;DHT22;2929;50.810;8.342;2022-08-19T08:29:06;20.00;99.90
5806;DHT22;2929;50.810;8.342;2022-08-19T08:31:37;20.20;99.90
5806;DHT22;2929;50.810;8.342;2022-08-19T08:34:03;20.30;99.90
5806;DHT22;2929;50.810;8.342;2022-08-19T08:36:31;20.40;99.90
5806;DHT22;2929;50.810;8.342;2022-08-19T08:38:59;20.50;99.90
5806;DHT22;2929;50.810;8.342;2022-08-19T08:41:34;20.60;99.90
5806;DHT22;2929;50.810;8.342;2022-08-19T08:44:04;20.60;99.90
5806;DHT22;2929;50.810;8.342;2022-08-19T08:46:36;20.70;99.90
5806;DHT22;2929;50.810;8.342;2022-08-19T08:49:10;20.70;99.90
5806;DHT22;2929;50.810;8.342;2022-08-19T08:51:43;20.90;99.90
5806;DHT22;2929;50.810;8.342;2022-08-19T08:54:14;21.10;99.90
5806;DHT22;2929;50.810;8.342;2022-08-19T08:56:46;21.30;99.90
5806;DHT22;2929;50.810;8.342;2022-08-19T08:59:21;21.40;99.90
5806;DHT22;2929;50.810;8.342;2022-08-19T09:01:50;21.40;99.90
5806;DHT22;2929;50.810;8.342;2022-08-19T09:04:17;21.40;99.90
5806;DHT22;2929;50.810;8.342;2022-08-19T09:06:49;21.50;99.90
5806;DHT22;2929;50.810;8.342;2022-08-19T09:09:22;21.40;99.90
5806;DHT22;2929;50.810;8.342;2022-08-19T09:12:02;21.50;99.90
5806;DHT22;2929;50.810;8.342;2022-08-19T09:14:35;21.60;99.90
5806;DHT22;2929;50.810;8.342;2022-08-19T09:17:07;21.70;99.90
5806;DHT22;2929;50.810;8.342;2022-08-19T09:19:36;21.80;99.90
5806;DHT22;2929;50.810;8.342;2022-08-19T09:22:13;21.90;99.90
5806;DHT22;2929;50.810;8.342;2022-08-19T09:24:41;22.00;99.90
5806;DHT22;2929;50.810;8.342;2022-08-19T09:27:09;22.20;99.90
5806;DHT22;2929;50.810;8.342;2022-08-19T09:29:36;22.20;99.90
5806;DHT22;2929;50.810;8.342;2022-08-19T09:32:04;22.40;99.90
5806;DHT22;2929;50.810;8.342;2022-08-19T09:34:32;22.40;99.90
5806;DHT22;2929;50.810;8.342;2022-08-19T09:36:59;22.40;99.90
5806;DHT22;2929;50.810;8.342;2022-08-19T09:39:26;22.50;99.90
5806;DHT22;2929;50.810;8.342;2022-08-19T09:41:53;22.50;99.90
5806;DHT22;2929;50.810;8.342;2022-08-19T09:44:22;22.50;99.90
5806;DHT22;2929;50.810;8.342;2022-08-19T09:46:49;22.50;99.90
5806;DHT22;2929;50.810;8.342;2022-08-19T09:49:18;22.50;99.90
5806;DHT22;2929;50.810;8.342;2022-08-19T09:51:49;22.50;99.90
5806;DHT22;2929;50.810;8.342;2022-08-19T09:54:17;22.70;99.90
5806;DHT22;2929;50.810;8.342;2022-08-19T09:56:44;22.70;99.90
5806;DHT22;2929;50.810;8.342;2022-08-19T09:59:11;22.90;99.90
5806;DHT22;2929;50.810;8.342;2022-08-19T10:01:40;23.10;99.90
5806;DHT22;2929;50.810;8.342;2022-08-19T10:04:07;23.10;99.90
5806;DHT22;2929;50.810;8.342;2022-08-19T10:06:36;23.10;99.90
5806;DHT22;2929;50.810;8.342;2022-08-19T10:09:04;23.00;99.90
5806;DHT22;2929;50.810;8.342;2022-08-19T10:11:32;22.90;99.90
5806;DHT22;2929;50.810;8.342;2022-08-19T10:14:00;22.80;99.90
5806;DHT22;2929;50.810;8.342;2022-08-19T10:16:27;22.80;99.90
5806;DHT22;2929;50.810;8.342;2022-08-19T10:18:56;23.00;99.90
5806;DHT22;2929;50.810;8.342;2022-08-19T10:21:25;23.30;99.90
5806;DHT22;2929;50.810;8.342;2022-08-19T10:23:55;23.80;99.90
5806;DHT22;2929;50.810;8.342;2022-08-19T10:26:24;24.20;99.90
5806;DHT22;2929;50.810;8.342;2022-08-19T10:28:52;24.40;99.90
5806;DHT22;2929;50.810;8.342;2022-08-19T10:31:21;24.10;99.90
5806;DHT22;2929;50.810;8.342;2022-08-19T10:33:49;24.00;99.90
5806;DHT22;2929;50.810;8.342;2022-08-19T10:36:19;23.90;99.90
5806;DHT22;2929;50.810;8.342;2022-08-19T10:38:50;23.80;99.90
5806;DHT22;2929;50.810;8.342;2022-08-19T10:41:20;24.10;99.90
5806;DHT22;2929;50.810;8.342;2022-08-19T10:43:50;24.40;99.80
5806;DHT22;2929;50.810;8.342;2022-08-19T10:46:18;24.70;98.90
5806;DHT22;2929;50.810;8.342;2022-08-19T10:48:45;25.00;98.80
5806;DHT22;2929;50.810;8.342;2022-08-19T10:51:12;24.80;99.20
5806;DHT22;2929;50.810;8.342;2022-08-19T10:53:59;24.30;99.90
5806;DHT22;2929;50.810;8.342;2022-08-19T10:56:27;23.90;99.90
5806;DHT22;2929;50.810;8.342;2022-08-19T10:59:12;23.80;99.90
5806;DHT22;2929;50.810;8.342;2022-08-19T11:01:40;23.80;99.90
5806;DHT22;2929;50.810;8.342;2022-08-19T11:04:08;24.30;99.40
5806;DHT22;2929;50.810;8.342;2022-08-19T11:06:39;24.70;98.20
5806;DHT22;2929;50.810;8.342;2022-08-19T11:09:08;25.10;97.20
5806;DHT22;2929;50.810;8.342;2022-08-19T11:11:36;25.20;98.00
5806;DHT22;2929;50.810;8.342;2022-08-19T11:14:06;25.20;97.20
5806;DHT22;2929;50.810;8.342;2022-08-19T11:16:33;25.80;96.70
5806;DHT22;2929;50.810;8.342;2022-08-19T11:19:00;26.40;96.60
5806;DHT22;2929;50.810;8.342;2022-08-19T11:21:29;26.70;94.60
5806;DHT22;2929;50.810;8.342;2022-08-19T11:23:59;27.00;93.90
5806;DHT22;2929;50.810;8.342;2022-08-19T11:26:29;26.50;92.90
5806;DHT22;2929;50.810;8.342;2022-08-19T11:28:57;26.40;92.50
5806;DHT22;2929;50.810;8.342;2022-08-19T11:31:26;26.50;93.70
5806;DHT22;2929;50.810;8.342;2022-08-19T11:33:55;26.60;94.60
5806;DHT22;2929;50.810;8.342;2022-08-19T11:36:22;26.40;94.10
5806;DHT22;2929;50.810;8.342;2022-08-19T11:38:49;26.30;93.20
5806;DHT22;2929;50.810;8.342;2022-08-19T11:41:18;26.70;92.60
5806;DHT22;2929;50.810;8.342;2022-08-19T11:43:48;27.20;92.80
5806;DHT22;2929;50.810;8.342;2022-08-19T11:46:16;27.90;91.40
5806;DHT22;2929;50.810;8.342;2022-08-19T11:48:44;27.80;91.00
5806;DHT22;2929;50.810;8.342;2022-08-19T11:51:13;28.20;90.40
5806;DHT22;2929;50.810;8.342;2022-08-19T11:53:41;28.20;88.50
5806;DHT22;2929;50.810;8.342;2022-08-19T11:56:09;28.90;85.10
5806;DHT22;2929;50.810;8.342;2022-08-19T11:58:36;29.10;84.20
5806;DHT22;2929;50.810;8.342;2022-08-19T12:01:07;29.50;83.20
5806;DHT22;2929;50.810;8.342;2022-08-19T12:03:35;29.00;83.70
5806;DHT22;2929;50.810;8.342;2022-08-19T12:06:04;28.70;86.00
5806;DHT22;2929;50.810;8.342;2022-08-19T12:08:31;29.00;84.90
5806;DHT22;2929;50.810;8.342;2022-08-19T12:10:59;27.80;85.70
5806;DHT22;2929;50.810;8.342;2022-08-19T12:13:28;27.00;87.40
5806;DHT22;2929;50.810;8.342;2022-08-19T12:15:56;26.60;88.80
5806;DHT22;2929;50.810;8.342;2022-08-19T12:18:25;26.30;90.90
5806;DHT22;2929;50.810;8.342;2022-08-19T12:20:53;26.10;90.80
5806;DHT22;2929;50.810;8.342;2022-08-19T12:23:21;26.10;91.20
5806;DHT22;2929;50.810;8.342;2022-08-19T12:25:49;25.80;91.60
5806;DHT22;2929;50.810;8.342;2022-08-19T12:28:17;25.50;91.40
5806;DHT22;2929;50.810;8.342;2022-08-19T12:30:45;25.60;92.60
5806;DHT22;2929;50.810;8.342;2022-08-19T12:33:12;25.60;91.60
5806;DHT22;2929;50.810;8.342;2022-08-19T12:35:42;25.80;91.20
5806;DHT22;2929;50.810;8.342;2022-08-19T12:38:10;25.70;91.00
5806;DHT22;2929;50.810;8.342;2022-08-19T12:40:37;26.40;91.30
5806;DHT22;2929;50.810;8.342;2022-08-19T12:43:04;27.10;89.90
5806;DHT22;2929;50.810;8.342;2022-08-19T12:45:31;27.40;88.20
5806;DHT22;2929;50.810;8.342;2022-08-19T12:47:58;27.80;85.90
5806;DHT22;2929;50.810;8.342;2022-08-19T12:50:25;28.00;85.90
5806;DHT22;2929;50.810;8.342;2022-08-19T12:52:54;28.60;82.50
5806;DHT22;2929;50.810;8.342;2022-08-19T12:55:21;29.10;83.00
5806;DHT22;2929;50.810;8.342;2022-08-19T12:57:48;29.30;81.40
5806;DHT22;2929;50.810;8.342;2022-08-19T13:00:18;28.50;82.20
5806;DHT22;2929;50.810;8.342;2022-08-19T13:02:48;28.00;83.30
5806;DHT22;2929;50.810;8.342;2022-08-19T13:05:18;27.70;85.50
5806;DHT22;2929;50.810;8.342;2022-08-19T13:07:46;28.40;87.70
5806;DHT22;2929;50.810;8.342;2022-08-19T13:10:18;28.60;84.40
5806;DHT22;2929;50.810;8.342;2022-08-19T13:12:46;28.50;84.00
5806;DHT22;2929;50.810;8.342;2022-08-19T13:15:14;28.30;84.50
5806;DHT22;2929;50.810;8.342;2022-08-19T13:17:43;27.70;85.00
5806;DHT22;2929;50.810;8.342;2022-08-19T13:20:10;27.50;85.50
5806;DHT22;2929;50.810;8.342;2022-08-19T13:22:38;27.00;86.30
5806;DHT22;2929;50.810;8.342;2022-08-19T13:25:06;26.90;87.00
5806;DHT22;2929;50.810;8.342;2022-08-19T13:27:36;26.80;87.40
5806;DHT22;2929;50.810;8.342;2022-08-19T13:30:05;26.70;88.60
5806;DHT22;2929;50.810;8.342;2022-08-19T13:32:55;26.80;89.00
5806;DHT22;2929;50.810;8.342;2022-08-19T13:35:38;27.40;86.60
5806;DHT22;2929;50.810;8.342;2022-08-19T13:38:05;27.20;88.20
5806;DHT22;2929;50.810;8.342;2022-08-19T13:40:33;27.20;90.00
5806;DHT22;2929;50.810;8.342;2022-08-19T13:43:02;26.90;86.70
5806;DHT22;2929;50.810;8.342;2022-08-19T13:45:31;26.70;86.80
5806;DHT22;2929;50.810;8.342;2022-08-19T13:48:00;26.60;89.00
5806;DHT22;2929;50.810;8.342;2022-08-19T13:50:30;26.60;86.70
5806;DHT22;2929;50.810;8.342;2022-08-19T13:52:58;27.40;90.00
5806;DHT22;2929;50.810;8.342;2022-08-19T13:55:26;27.90;84.10
5806;DHT22;2929;50.810;8.342;2022-08-19T13:57:55;28.60;84.00
5806;DHT22;2929;50.810;8.342;2022-08-19T14:00:26;28.60;84.50
5806;DHT22;2929;50.810;8.342;2022-08-19T14:02:55;28.00;83.80
5806;DHT22;2929;50.810;8.342;2022-08-19T14:05:25;27.60;85.40
5806;DHT22;2929;50.810;8.342;2022-08-19T14:07:52;28.10;85.90
5806;DHT22;2929;50.810;8.342;2022-08-19T14:10:20;28.10;83.80
5806;DHT22;2929;50.810;8.342;2022-08-19T14:12:47;27.30;82.90
5806;DHT22;2929;50.810;8.342;2022-08-19T14:15:15;27.10;84.30
5806;DHT22;2929;50.810;8.342;2022-08-19T14:17:45;27.10;85.70
5806;DHT22;2929;50.810;8.342;2022-08-19T14:20:14;27.00;83.80
5806;DHT22;2929;50.810;8.342;2022-08-19T14:22:42;27.70;81.70
5806;DHT22;2929;50.810;8.342;2022-08-19T14:25:12;28.40;81.00
5806;DHT22;2929;50.810;8.342;2022-08-19T14:27:40;28.20;77.90
5806;DHT22;2929;50.810;8.342;2022-08-19T14:30:08;28.20;80.40
5806;DHT22;2929;50.810;8.342;2022-08-19T14:32:36;28.70;80.50
5806;DHT22;2929;50.810;8.342;2022-08-19T14:35:05;29.20;77.90
5806;DHT22;2929;50.810;8.342;2022-08-19T14:37:33;29.70;76.10
5806;DHT22;2929;50.810;8.342;2022-08-19T14:40:00;30.00;76.50
5806;DHT22;2929;50.810;8.342;2022-08-19T14:42:27;30.40;76.20
5806;DHT22;2929;50.810;8.342;2022-08-19T14:44:57;30.60;75.10
5806;DHT22;2929;50.810;8.342;2022-08-19T14:47:25;30.90;76.00
5806;DHT22;2929;50.810;8.342;2022-08-19T14:49:53;30.70;74.30
5806;DHT22;2929;50.810;8.342;2022-08-19T14:52:21;31.10;73.90
5806;DHT22;2929;50.810;8.342;2022-08-19T14:54:48;31.10;73.90
5806;DHT22;2929;50.810;8.342;2022-08-19T14:57:15;30.70;74.50
5806;DHT22;2929;50.810;8.342;2022-08-19T14:59:42;30.40;76.90
5806;DHT22;2929;50.810;8.342;2022-08-19T15:02:10;30.10;76.40
5806;DHT22;2929;50.810;8.342;2022-08-19T15:04:37;30.30;77.50
5806;DHT22;2929;50.810;8.342;2022-08-19T15:07:05;30.00;76.40
5806;DHT22;2929;50.810;8.342;2022-08-19T15:09:33;30.30;78.20
5806;DHT22;2929;50.810;8.342;2022-08-19T15:12:02;30.10;78.50
5806;DHT22;2929;50.810;8.342;2022-08-19T15:14:30;29.50;77.20
5806;DHT22;2929;50.810;8.342;2022-08-19T15:17:01;29.00;77.80
5806;DHT22;2929;50.810;8.342;2022-08-19T15:19:29;28.70;79.90
5806;DHT22;2929;50.810;8.342;2022-08-19T15:21:56;28.80;80.40
5806;DHT22;2929;50.810;8.342;2022-08-19T15:24:23;29.30;82.10
5806;DHT22;2929;50.810;8.342;2022-08-19T15:26:53;29.90;78.50
5806;DHT22;2929;50.810;8.342;2022-08-19T15:29:21;30.20;77.70
5806;DHT22;2929;50.810;8.342;2022-08-19T15:31:50;30.70;77.20
5806;DHT22;2929;50.810;8.342;2022-08-19T15:34:17;30.30;75.00
5806;DHT22;2929;50.810;8.342;2022-08-19T15:36:44;30.20;75.20
5806;DHT22;2929;50.810;8.342;2022-08-19T15:39:11;30.10;75.10
5806;DHT22;2929;50.810;8.342;2022-08-19T15:41:38;30.00;75.50
5806;DHT22;2929;50.810;8.342;2022-08-19T15:44:09;29.90;75.70
5806;DHT22;2929;50.810;8.342;2022-08-19T15:46:40;29.90;76.30
5806;DHT22;2929;50.810;8.342;2022-08-19T15:49:08;30.00;76.80
5806;DHT22;2929;50.810;8.342;2022-08-19T15:51:36;30.20;75.90
5806;DHT22;2929;50.810;8.342;2022-08-19T15:54:05;30.10;75.50
5806;DHT22;2929;50.810;8.342;2022-08-19T15:56:33;30.40;74.30
5806;DHT22;2929;50.810;8.342;2022-08-19T15:59:28;30.50;73.60
5806;DHT22;2929;50.810;8.342;2022-08-19T16:02:09;30.20;75.00
5806;DHT22;2929;50.810;8.342;2022-08-19T16:05:04;30.20;74.20
5806;DHT22;2929;50.810;8.342;2022-08-19T16:07:50;30.10;72.70
5806;DHT22;2929;50.810;8.342;2022-08-19T16:10:17;29.90;73.90
5806;DHT22;2929;50.810;8.342;2022-08-19T16:12:44;30.10;73.90
5806;DHT22;2929;50.810;8.342;2022-08-19T16:15:13;30.30;71.80